sensor_id;sensor_type;location;lat;lon;timestamp;temperature;humidity
41116;DHT22;26861;51.824;4.682;2023-03-16T00:02:19;16.00;49.50
41116;DHT22;26861;51.824;4.682;2023-03-16T00:04:45;16.00;49.60
41116;DHT22;26861;51.824;4.682;2023-03-16T00:07:12;16.00;49.60
41116;DHT22;26861;51.824;4.682;2023-03-16T00:09:38;16.00;49.80
41116;DHT22;26861;51.824;4.682;2023-03-16T00:12:12;16.00;49.80
41116;DHT22;26861;51.824;4.682;2023-03-16T00:14:43;16.00;50.40
41116;DHT22;26861;51.824;4.682;2023-03-16T00:17:14;16.00;49.70
41116;DHT22;26861;51.824;4.682;2023-03-16T00:19:47;16.00;49.80
41116;DHT22;26861;51.824;4.682;2023-03-16T00:22:14;15.90;49.70
41116;DHT22;26861;51.824;4.682;2023-03-16T00:24:40;16.00;50.00
41116;DHT22;26861;51.824;4.682;2023-03-16T00:27:10;16.00;50.00
41116;DHT22;26861;51.824;4.682;2023-03-16T00:29:42;16.00;50.00
41116;DHT22;26861;51.824;4.682;2023-03-16T00:32:16;16.00;49.90
41116;DHT22;26861;51.824;4.682;2023-03-16T00:34:43;16.00;50.00
41116;DHT22;26861;51.824;4.682;2023-03-16T00:37:09;16.00;49.90
41116;DHT22;26861;51.824;4.682;2023-03-16T00:39:34;15.90;49.90
41116;DHT22;26861;51.824;4.682;2023-03-16T00:42:03;16.00;50.00
41116;DHT22;26861;51.824;4.682;2023-03-16T00:44:29;16.00;50.00
41116;DHT22;26861;51.824;4.682;2023-03-16T00:46:56;15.90;49.90
41116;DHT22;26861;51.824;4.682;2023-03-16T00:49:21;15.90;50.00
41116;DHT22;26861;51.824;4.682;2023-03-16T00:51:47;16.00;50.10
41116;DHT22;26861;51.824;4.682;2023-03-16T00:54:13;16.00;50.00
41116;DHT22;26861;51.824;4.682;2023-03-16T00:56:38;15.90;50.60
41116;DHT22;26861;51.824;4.682;2023-03-16T00:59:04;15.90;49.90
41116;DHT22;26861;51.824;4.682;2023-03-16T01:01:31;15.90;50.40
41116;DHT22;26861;51.824;4.682;2023-03-16T01:04:16;16.00;50.10
41116;DHT22;26861;51.824;4.682;2023-03-16T01:06:44;15.90;50.00
41116;DHT22;26861;51.824;4.682;2023-03-16T01:09:11;15.90;49.90
41116;DHT22;26861;51.824;4.682;2023-03-16T01:11:37;15.90;49.90
41116;DHT22;26861;51.824;4.682;2023-03-16T01:14:03;16.00;50.00
41116;DHT22;26861;51.824;4.682;2023-03-16T01:16:29;15.90;50.10
41116;DHT22;26861;51.824;4.682;2023-03-16T01:18:58;15.90;50.10
41116;DHT22;26861;51.824;4.682;2023-03-16T01:21:24;15.90;50.10
41116;DHT22;26861;51.824;4.682;2023-03-16T01:23:49;15.90;50.20
41116;DHT22;26861;51.824;4.682;2023-03-16T01:26:15;15.90;50.10
41116;DHT22;26861;51.824;4.682;2023-03-16T01:28:42;15.90;50.10
41116;DHT22;26861;51.824;4.682;2023-03-16T01:31:10;15.90;50.10
41116;DHT22;26861;51.824;4.682;2023-03-16T01:33:37;15.90;50.10
41116;DHT22;26861;51.824;4.682;2023-03-16T01:36:12;15.90;50.80
41116;DHT22;26861;51.824;4.682;2023-03-16T01:38:39;15.90;50.10
41116;DHT22;26861;51.824;4.682;2023-03-16T01:41:05;15.90;50.00
41116;DHT22;26861;51.824;4.682;2023-03-16T01:43:33;15.90;50.10
41116;DHT22;26861;51.824;4.682;2023-03-16T01:51:23;15.80;50.10
41116;DHT22;26861;51.824;4.682;2023-03-16T01:53:52;15.90;50.20
41116;DHT22;26861;51.824;4.682;2023-03-16T01:56:26;15.90;50.30
41116;DHT22;26861;51.824;4.682;2023-03-16T01:58:55;15.90;50.20
41116;DHT22;26861;51.824;4.682;2023-03-16T02:01:27;15.90;50.20
41116;DHT22;26861;51.824;4.682;2023-03-16T02:03:54;15.90;50.30
41116;DHT22;26861;51.824;4.682;2023-03-16T02:06:21;15.80;50.30
41116;DHT22;26861;51.824;4.682;2023-03-16T02:08:49;15.80;50.40
41116;DHT22;26861;51.824;4.682;2023-03-16T02:11:15;15.80;50.40
41116;DHT22;26861;51.824;4.682;2023-03-16T02:13:44;15.80;50.30
41116;DHT22;26861;51.824;4.682;2023-03-16T02:16:11;15.80;50.30
41116;DHT22;26861;51.824;4.682;2023-03-16T02:18:37;15.80;50.40
41116;DHT22;26861;51.824;4.682;2023-03-16T02:23:49;15.80;50.40
41116;DHT22;26861;51.824;4.682;2023-03-16T02:26:28;15.80;50.50
41116;DHT22;26861;51.824;4.682;2023-03-16T02:29:19;15.90;50.50
41116;DHT22;26861;51.824;4.682;2023-03-16T02:31:47;15.80;50.50
41116;DHT22;26861;51.824;4.682;2023-03-16T02:34:14;15.80;50.50
41116;DHT22;26861;51.824;4.682;2023-03-16T02:36:43;15.80;50.40
41116;DHT22;26861;51.824;4.682;2023-03-16T02:39:10;15.80;50.70
41116;DHT22;26861;51.824;4.682;2023-03-16T02:41:35;15.80;50.60
41116;DHT22;26861;51.824;4.682;2023-03-16T02:44:08;15.80;50.60
41116;DHT22;26861;51.824;4.682;2023-03-16T02:46:39;15.80;51.20
41116;DHT22;26861;51.824;4.682;2023-03-16T02:49:24;15.80;50.60
41116;DHT22;26861;51.824;4.682;2023-03-16T02:51:51;15.80;50.60
41116;DHT22;26861;51.824;4.682;2023-03-16T02:54:17;15.80;50.70
41116;DHT22;26861;51.824;4.682;2023-03-16T02:56:42;15.80;50.80
41116;DHT22;26861;51.824;4.682;2023-03-16T02:59:08;15.80;50.80
41116;DHT22;26861;51.824;4.682;2023-03-16T03:01:34;15.80;50.80
41116;DHT22;26861;51.824;4.682;2023-03-16T03:04:02;15.80;50.70
41116;DHT22;26861;51.824;4.682;2023-03-16T03:06:28;15.80;50.80
41116;DHT22;26861;51.824;4.682;2023-03-16T03:08:55;15.80;50.80
41116;DHT22;26861;51.824;4.682;2023-03-16T03:11:20;15.80;50.80
41116;DHT22;26861;51.824;4.682;2023-03-16T03:13:46;15.80;50.90
41116;DHT22;26861;51.824;4.682;2023-03-16T03:16:12;15.80;50.80
41116;DHT22;26861;51.824;4.682;2023-03-16T03:18:38;15.80;50.80
41116;DHT22;26861;51.824;4.682;2023-03-16T03:21:04;15.80;50.80
41116;DHT22;26861;51.824;4.682;2023-03-16T03:23:30;15.80;50.90
41116;DHT22;26861;51.824;4.682;2023-03-16T03:25:57;15.80;50.80
41116;DHT22;26861;51.824;4.682;2023-03-16T03:28:23;15.80;51.50
41116;DHT22;26861;51.824;4.682;2023-03-16T03:30:49;15.80;50.80
41116;DHT22;26861;51.824;4.682;2023-03-16T03:33:15;15.80;50.80
41116;DHT22;26861;51.824;4.682;2023-03-16T03:35:41;15.70;50.70
41116;DHT22;26861;51.824;4.682;2023-03-16T03:38:07;15.80;50.90
41116;DHT22;26861;51.824;4.682;2023-03-16T03:40:33;15.80;50.80
41116;DHT22;26861;51.824;4.682;2023-03-16T03:42:59;15.80;50.80
41116;DHT22;26861;51.824;4.682;2023-03-16T03:45:25;15.80;51.00
41116;DHT22;26861;51.824;4.682;2023-03-16T03:47:50;15.70;51.50
41116;DHT22;26861;51.824;4.682;2023-03-16T03:50:16;15.70;50.90
41116;DHT22;26861;51.824;4.682;2023-03-16T03:52:42;15.70;50.90
41116;DHT22;26861;51.824;4.682;2023-03-16T03:55:08;15.70;50.90
41116;DHT22;26861;51.824;4.682;2023-03-16T03:57:35;15.70;50.90
41116;DHT22;26861;51.824;4.682;2023-03-16T04:00:00;15.80;51.00
41116;DHT22;26861;51.824;4.682;2023-03-16T04:02:26;15.70;51.00
41116;DHT22;26861;51.824;4.682;2023-03-16T04:04:52;15.80;51.10
41116;DHT22;26861;51.824;4.682;2023-03-16T04:07:17;15.80;51.00
41116;DHT22;26861;51.824;4.682;2023-03-16T04:09:43;15.80;51.10
41116;DHT22;26861;51.824;4.682;2023-03-16T04:12:09;15.80;51.10
41116;DHT22;26861;51.824;4.682;2023-03-16T04:14:35;15.80;51.20
41116;DHT22;26861;51.824;4.682;2023-03-16T04:17:01;15.70;50.90
41116;DHT22;26861;51.824;4.682;2023-03-16T04:19:26;15.80;51.20
41116;DHT22;26861;51.824;4.682;2023-03-16T04:21:52;15.80;51.00
41116;DHT22;26861;51.824;4.682;2023-03-16T04:24:18;15.80;51.10
41116;DHT22;26861;51.824;4.682;2023-03-16T04:26:44;15.80;51.10
41116;DHT22;26861;51.824;4.682;2023-03-16T04:29:11;15.70;51.00
41116;DHT22;26861;51.824;4.682;2023-03-16T04:31:38;15.70;51.10
41116;DHT22;26861;51.824;4.682;2023-03-16T04:34:05;15.80;51.10
41116;DHT22;26861;51.824;4.682;2023-03-16T04:36:30;15.70;51.10
41116;DHT22;26861;51.824;4.682;2023-03-16T04:38:57;15.80;51.20
41116;DHT22;26861;51.824;4.682;2023-03-16T04:41:23;15.80;51.30
41116;DHT22;26861;51.824;4.682;2023-03-16T04:43:48;15.80;51.10
41116;DHT22;26861;51.824;4.682;2023-03-16T04:46:14;15.80;51.10
41116;DHT22;26861;51.824;4.682;2023-03-16T04:48:39;15.80;51.10
41116;DHT22;26861;51.824;4.682;2023-03-16T04:51:05;15.80;51.20
41116;DHT22;26861;51.824;4.682;2023-03-16T04:53:31;15.80;51.10
41116;DHT22;26861;51.824;4.682;2023-03-16T04:55:57;15.80;51.80
41116;DHT22;26861;51.824;4.682;2023-03-16T04:58:24;15.80;51.20
41116;DHT22;26861;51.824;4.682;2023-03-16T05:00:53;15.80;51.20
41116;DHT22;26861;51.824;4.682;2023-03-16T05:03:20;15.80;51.30
41116;DHT22;26861;51.824;4.682;2023-03-16T05:05:46;15.80;51.90
41116;DHT22;26861;51.824;4.682;2023-03-16T05:08:12;15.80;51.30
41116;DHT22;26861;51.824;4.682;2023-03-16T05:10:38;15.80;51.50
41116;DHT22;26861;51.824;4.682;2023-03-16T05:13:04;15.80;51.50
41116;DHT22;26861;51.824;4.682;2023-03-16T05:15:30;15.80;52.20
41116;DHT22;26861;51.824;4.682;2023-03-16T05:17:56;15.80;51.50
41116;DHT22;26861;51.824;4.682;2023-03-16T05:20:22;15.80;51.60
41116;DHT22;26861;51.824;4.682;2023-03-16T05:22:48;15.80;51.80
41116;DHT22;26861;51.824;4.682;2023-03-16T05:25:15;15.90;51.90
41116;DHT22;26861;51.824;4.682;2023-03-16T05:27:46;15.80;51.80
41116;DHT22;26861;51.824;4.682;2023-03-16T05:30:13;15.80;51.90
41116;DHT22;26861;51.824;4.682;2023-03-16T05:32:41;15.80;52.10
41116;DHT22;26861;51.824;4.682;2023-03-16T05:35:07;15.90;52.30
41116;DHT22;26861;51.824;4.682;2023-03-16T05:37:34;15.90;52.30
41116;DHT22;26861;51.824;4.682;2023-03-16T05:40:05;15.80;52.30
41116;DHT22;26861;51.824;4.682;2023-03-16T05:42:39;15.80;52.40
41116;DHT22;26861;51.824;4.682;2023-03-16T05:45:04;15.90;52.50
41116;DHT22;26861;51.824;4.682;2023-03-16T05:47:30;15.80;52.40
41116;DHT22;26861;51.824;4.682;2023-03-16T05:49:56;15.80;52.50
41116;DHT22;26861;51.824;4.682;2023-03-16T05:52:22;15.80;52.60
41116;DHT22;26861;51.824;4.682;2023-03-16T05:54:49;15.80;52.70
41116;DHT22;26861;51.824;4.682;2023-03-16T05:57:15;15.80;52.50
41116;DHT22;26861;51.824;4.682;2023-03-16T05:59:40;15.80;52.70
41116;DHT22;26861;51.824;4.682;2023-03-16T06:02:06;15.80;52.80
41116;DHT22;26861;51.824;4.682;2023-03-16T06:04:35;15.80;52.70
41116;DHT22;26861;51.824;4.682;2023-03-16T06:07:01;15.80;52.70
41116;DHT22;26861;51.824;4.682;2023-03-16T06:09:27;15.80;53.30
41116;DHT22;26861;51.824;4.682;2023-03-16T06:11:53;15.80;52.60
41116;DHT22;26861;51.824;4.682;2023-03-16T06:14:19;15.80;52.60
41116;DHT22;26861;51.824;4.682;2023-03-16T06:16:45;15.80;53.20
41116;DHT22;26861;51.824;4.682;2023-03-16T06:19:11;15.80;52.60
41116;DHT22;26861;51.824;4.682;2023-03-16T06:21:38;15.80;52.70
41116;DHT22;26861;51.824;4.682;2023-03-16T06:24:04;15.80;52.60
41116;DHT22;26861;51.824;4.682;2023-03-16T06:26:32;15.80;52.70
41116;DHT22;26861;51.824;4.682;2023-03-16T06:28:58;15.80;52.70
41116;DHT22;26861;51.824;4.682;2023-03-16T06:31:24;15.80;52.60
41116;DHT22;26861;51.824;4.682;2023-03-16T06:33:50;15.70;52.50
41116;DHT22;26861;51.824;4.682;2023-03-16T06:36:16;15.70;52.60
41116;DHT22;26861;51.824;4.682;2023-03-16T06:38:42;15.80;52.60
41116;DHT22;26861;51.824;4.682;2023-03-16T06:41:08;15.70;52.50
41116;DHT22;26861;51.824;4.682;2023-03-16T06:43:34;15.70;52.50
41116;DHT22;26861;51.824;4.682;2023-03-16T06:46:00;15.70;52.40
41116;DHT22;26861;51.824;4.682;2023-03-16T06:48:28;15.70;52.50
41116;DHT22;26861;51.824;4.682;2023-03-16T06:50:54;15.70;52.30
41116;DHT22;26861;51.824;4.682;2023-03-16T06:53:20;15.70;52.30
41116;DHT22;26861;51.824;4.682;2023-03-16T06:55:47;15.70;52.40
41116;DHT22;26861;51.824;4.682;2023-03-16T06:58:13;15.70;52.40
41116;DHT22;26861;51.824;4.682;2023-03-16T07:00:39;15.70;52.30
41116;DHT22;26861;51.824;4.682;2023-03-16T07:03:05;15.70;52.30
41116;DHT22;26861;51.824;4.682;2023-03-16T07:05:31;15.70;52.40
41116;DHT22;26861;51.824;4.682;2023-03-16T07:07:57;15.70;52.40
41116;DHT22;26861;51.824;4.682;2023-03-16T07:10:23;15.60;52.30
41116;DHT22;26861;51.824;4.682;2023-03-16T07:12:50;15.60;52.40
41116;DHT22;26861;51.824;4.682;2023-03-16T07:15:16;15.70;52.40
41116;DHT22;26861;51.824;4.682;2023-03-16T07:17:42;15.70;52.30
41116;DHT22;26861;51.824;4.682;2023-03-16T07:20:10;15.70;52.30
41116;DHT22;26861;51.824;4.682;2023-03-16T07:22:37;15.70;52.30
41116;DHT22;26861;51.824;4.682;2023-03-16T07:25:05;15.60;52.20
41116;DHT22;26861;51.824;4.682;2023-03-16T07:27:31;15.70;52.20
41116;DHT22;26861;51.824;4.682;2023-03-16T07:29:57;15.60;52.20
41116;DHT22;26861;51.824;4.682;2023-03-16T07:32:24;15.60;52.20
41116;DHT22;26861;51.824;4.682;2023-03-16T07:34:50;15.60;52.20
41116;DHT22;26861;51.824;4.682;2023-03-16T07:37:16;15.60;52.10
41116;DHT22;26861;51.824;4.682;2023-03-16T07:39:42;15.60;52.10
41116;DHT22;26861;51.824;4.682;2023-03-16T07:42:08;15.60;52.10
41116;DHT22;26861;51.824;4.682;2023-03-16T07:44:34;15.60;52.10
41116;DHT22;26861;51.824;4.682;2023-03-16T07:47:00;15.60;52.00
41116;DHT22;26861;51.824;4.682;2023-03-16T07:49:26;15.60;52.10
41116;DHT22;26861;51.824;4.682;2023-03-16T07:51:52;15.50;52.00
41116;DHT22;26861;51.824;4.682;2023-03-16T07:54:18;15.50;51.90
41116;DHT22;26861;51.824;4.682;2023-03-16T07:56:44;15.50;52.10
41116;DHT22;26861;51.824;4.682;2023-03-16T07:59:10;15.50;52.20
41116;DHT22;26861;51.824;4.682;2023-03-16T08:01:36;15.50;52.10
41116;DHT22;26861;51.824;4.682;2023-03-16T08:04:03;15.40;52.20
41116;DHT22;26861;51.824;4.682;2023-03-16T08:06:29;15.40;52.10
41116;DHT22;26861;51.824;4.682;2023-03-16T08:08:55;15.40;52.80
41116;DHT22;26861;51.824;4.682;2023-03-16T08:11:21;15.40;52.20
41116;DHT22;26861;51.824;4.682;2023-03-16T08:13:50;15.50;52.20
41116;DHT22;26861;51.824;4.682;2023-03-16T08:16:22;15.50;52.20
41116;DHT22;26861;51.824;4.682;2023-03-16T08:18:48;15.40;52.10
41116;DHT22;26861;51.824;4.682;2023-03-16T08:21:16;15.40;52.30
41116;DHT22;26861;51.824;4.682;2023-03-16T08:23:42;15.40;52.20
41116;DHT22;26861;51.824;4.682;2023-03-16T08:26:15;15.40;52.20
41116;DHT22;26861;51.824;4.682;2023-03-16T08:28:42;15.40;52.20
41116;DHT22;26861;51.824;4.682;2023-03-16T08:31:13;15.40;52.10
41116;DHT22;26861;51.824;4.682;2023-03-16T08:33:41;15.40;52.30
41116;DHT22;26861;51.824;4.682;2023-03-16T08:36:09;15.40;52.10
41116;DHT22;26861;51.824;4.682;2023-03-16T08:38:37;15.40;52.20
41116;DHT22;26861;51.824;4.682;2023-03-16T08:41:05;15.40;52.20
41116;DHT22;26861;51.824;4.682;2023-03-16T08:43:31;15.40;52.20
41116;DHT22;26861;51.824;4.682;2023-03-16T08:45:57;15.40;52.10
41116;DHT22;26861;51.824;4.682;2023-03-16T08:48:24;15.40;52.20
41116;DHT22;26861;51.824;4.682;2023-03-16T08:50:51;15.40;52.10
41116;DHT22;26861;51.824;4.682;2023-03-16T08:53:18;15.40;52.10
41116;DHT22;26861;51.824;4.682;2023-03-16T08:55:46;15.40;52.10
41116;DHT22;26861;51.824;4.682;2023-03-16T08:58:12;15.40;52.10
41116;DHT22;26861;51.824;4.682;2023-03-16T09:00:39;15.50;52.20
41116;DHT22;26861;51.824;4.682;2023-03-16T09:03:06;15.50;52.20
41116;DHT22;26861;51.824;4.682;2023-03-16T09:05:32;15.50;52.20
41116;DHT22;26861;51.824;4.682;2023-03-16T09:07:58;15.40;52.00
41116;DHT22;26861;51.824;4.682;2023-03-16T09:10:26;15.50;52.10
41116;DHT22;26861;51.824;4.682;2023-03-16T09:12:52;15.50;52.10
41116;DHT22;26861;51.824;4.682;2023-03-16T09:15:19;15.40;52.20
41116;DHT22;26861;51.824;4.682;2023-03-16T09:17:46;15.40;52.10
41116;DHT22;26861;51.824;4.682;2023-03-16T09:20:13;15.40;52.20
41116;DHT22;26861;51.824;4.682;2023-03-16T09:22:40;15.50;52.30
41116;DHT22;26861;51.824;4.682;2023-03-16T09:25:07;15.50;52.10
41116;DHT22;26861;51.824;4.682;2023-03-16T09:27:34;15.50;52.10
41116;DHT22;26861;51.824;4.682;2023-03-16T09:30:05;15.50;52.00
41116;DHT22;26861;51.824;4.682;2023-03-16T09:32:32;15.50;52.00
41116;DHT22;26861;51.824;4.682;2023-03-16T09:34:58;15.50;52.00
41116;DHT22;26861;51.824;4.682;2023-03-16T09:37:24;15.60;52.10
41116;DHT22;26861;51.824;4.682;2023-03-16T09:39:50;15.60;52.00
41116;DHT22;26861;51.824;4.682;2023-03-16T09:42:45;15.60;52.10
41116;DHT22;26861;51.824;4.682;2023-03-16T09:45:37;15.70;52.20
41116;DHT22;26861;51.824;4.682;2023-03-16T09:48:08;15.70;52.40
41116;DHT22;26861;51.824;4.682;2023-03-16T09:50:39;15.70;52.40
41116;DHT22;26861;51.824;4.682;2023-03-16T09:53:26;15.60;52.40
41116;DHT22;26861;51.824;4.682;2023-03-16T09:56:11;15.70;52.50
41116;DHT22;26861;51.824;4.682;2023-03-16T09:58:40;15.70;52.40
41116;DHT22;26861;51.824;4.682;2023-03-16T10:04:04;15.70;52.40
41116;DHT22;26861;51.824;4.682;2023-03-16T10:06:36;15.80;52.50
41116;DHT22;26861;51.824;4.682;2023-03-16T10:09:25;15.80;52.40
41116;DHT22;26861;51.824;4.682;2023-03-16T10:11:54;15.80;52.50
41116;DHT22;26861;51.824;4.682;2023-03-16T10:17:20;15.90;52.50
41116;DHT22;26861;51.824;4.682;2023-03-16T10:20:06;15.90;52.50
41116;DHT22;26861;51.824;4.682;2023-03-16T10:22:42;15.90;52.50
41116;DHT22;26861;51.824;4.682;2023-03-16T10:25:19;16.00;52.50
41116;DHT22;26861;51.824;4.682;2023-03-16T10:27:46;16.00;52.50
41116;DHT22;26861;51.824;4.682;2023-03-16T10:30:23;16.00;52.60
41116;DHT22;26861;51.824;4.682;2023-03-16T10:32:50;16.00;52.60
41116;DHT22;26861;51.824;4.682;2023-03-16T10:38:40;16.00;52.60
41116;DHT22;26861;51.824;4.682;2023-03-16T10:41:34;16.10;52.60
41116;DHT22;26861;51.824;4.682;2023-03-16T10:44:24;16.10;52.70
41116;DHT22;26861;51.824;4.682;2023-03-16T10:47:15;16.10;52.60
41116;DHT22;26861;51.824;4.682;2023-03-16T10:49:42;16.10;52.60
41116;DHT22;26861;51.824;4.682;2023-03-16T10:52:32;16.20;52.70
41116;DHT22;26861;51.824;4.682;2023-03-16T10:55:30;16.20;52.70
41116;DHT22;26861;51.824;4.682;2023-03-16T10:57:57;16.20;53.30
41116;DHT22;26861;51.824;4.682;2023-03-16T11:00:29;16.20;53.30
41116;DHT22;26861;51.824;4.682;2023-03-16T11:02:58;16.20;52.70
41116;DHT22;26861;51.824;4.682;2023-03-16T11:08:06;16.20;52.70
41116;DHT22;26861;51.824;4.682;2023-03-16T11:10:43;16.20;52.80
41116;DHT22;26861;51.824;4.682;2023-03-16T11:13:14;16.20;52.80
41116;DHT22;26861;51.824;4.682;2023-03-16T11:15:55;16.30;52.90
41116;DHT22;26861;51.824;4.682;2023-03-16T11:18:31;16.20;52.90
41116;DHT22;26861;51.824;4.682;2023-03-16T11:23:55;16.30;52.90
41116;DHT22;26861;51.824;4.682;2023-03-16T11:26:28;16.30;52.70
41116;DHT22;26861;51.824;4.682;2023-03-16T11:34:20;16.30;52.90
41116;DHT22;26861;51.824;4.682;2023-03-16T11:36:50;16.30;52.90
41116;DHT22;26861;51.824;4.682;2023-03-16T11:39:50;16.30;53.00
41116;DHT22;26861;51.824;4.682;2023-03-16T11:48:18;16.40;53.20
41116;DHT22;26861;51.824;4.682;2023-03-16T11:50:49;16.50;52.60
41116;DHT22;26861;51.824;4.682;2023-03-16T11:53:48;16.50;52.40
41116;DHT22;26861;51.824;4.682;2023-03-16T12:00:07;16.80;51.90
41116;DHT22;26861;51.824;4.682;2023-03-16T12:02:29;16.90;51.70
41116;DHT22;26861;51.824;4.682;2023-03-16T12:16:22;17.00;51.40
41116;DHT22;26861;51.824;4.682;2023-03-16T12:19:19;17.20;51.20
41116;DHT22;26861;51.824;4.682;2023-03-16T12:21:58;17.30;51.00
41116;DHT22;26861;51.824;4.682;2023-03-16T12:24:28;17.50;50.80
41116;DHT22;26861;51.824;4.682;2023-03-16T12:26:57;17.60;50.50
41116;DHT22;26861;51.824;4.682;2023-03-16T12:29:34;17.70;50.50
41116;DHT22;26861;51.824;4.682;2023-03-16T12:32:22;17.80;50.30
41116;DHT22;26861;51.824;4.682;2023-03-16T12:35:01;17.80;50.10
41116;DHT22;26861;51.824;4.682;2023-03-16T12:40:29;18.00;50.00
41116;DHT22;26861;51.824;4.682;2023-03-16T12:43:11;18.10;49.80
41116;DHT22;26861;51.824;4.682;2023-03-16T12:48:26;18.30;49.70
41116;DHT22;26861;51.824;4.682;2023-03-16T12:50:59;18.40;49.60
41116;DHT22;26861;51.824;4.682;2023-03-16T12:56:44;18.40;49.70
41116;DHT22;26861;51.824;4.682;2023-03-16T12:59:20;18.40;49.60
41116;DHT22;26861;51.824;4.682;2023-03-16T13:01:57;18.50;49.70
41116;DHT22;26861;51.824;4.682;2023-03-16T13:04:37;18.50;49.70
41116;DHT22;26861;51.824;4.682;2023-03-16T13:07:15;18.60;49.70
41116;DHT22;26861;51.824;4.682;2023-03-16T13:09:46;18.60;50.20
41116;DHT22;26861;51.824;4.682;2023-03-16T13:12:43;18.70;49.50
41116;DHT22;26861;51.824;4.682;2023-03-16T13:17:47;18.70;49.50
41116;DHT22;26861;51.824;4.682;2023-03-16T13:20:26;18.80;49.50
41116;DHT22;26861;51.824;4.682;2023-03-16T13:23:28;18.80;49.50
41116;DHT22;26861;51.824;4.682;2023-03-16T13:26:16;18.90;49.70
41116;DHT22;26861;51.824;4.682;2023-03-16T13:28:49;18.90;49.50
41116;DHT22;26861;51.824;4.682;2023-03-16T13:31:35;18.90;49.40
41116;DHT22;26861;51.824;4.682;2023-03-16T13:34:05;19.10;49.60
41116;DHT22;26861;51.824;4.682;2023-03-16T13:36:33;19.10;49.40
41116;DHT22;26861;51.824;4.682;2023-03-16T13:39:18;19.10;49.90
41116;DHT22;26861;51.824;4.682;2023-03-16T13:42:01;19.20;49.40
41116;DHT22;26861;51.824;4.682;2023-03-16T13:44:28;19.20;49.30
41116;DHT22;26861;51.824;4.682;2023-03-16T13:46:54;19.20;49.40
41116;DHT22;26861;51.824;4.682;2023-03-16T13:49:21;19.20;49.30
41116;DHT22;26861;51.824;4.682;2023-03-16T13:51:48;19.30;49.40
41116;DHT22;26861;51.824;4.682;2023-03-16T13:54:24;19.30;49.40
41116;DHT22;26861;51.824;4.682;2023-03-16T13:56:51;19.40;49.30
41116;DHT22;26861;51.824;4.682;2023-03-16T13:59:19;19.50;49.30
41116;DHT22;26861;51.824;4.682;2023-03-16T14:01:47;19.50;49.10
41116;DHT22;26861;51.824;4.682;2023-03-16T14:04:14;19.50;49.10
41116;DHT22;26861;51.824;4.682;2023-03-16T14:07:02;19.50;49.00
41116;DHT22;26861;51.824;4.682;2023-03-16T14:09:32;19.60;49.00
41116;DHT22;26861;51.824;4.682;2023-03-16T14:11:59;19.60;48.90
41116;DHT22;26861;51.824;4.682;2023-03-16T14:14:28;19.70;48.90
41116;DHT22;26861;51.824;4.682;2023-03-16T14:17:02;19.70;48.90
41116;DHT22;26861;51.824;4.682;2023-03-16T14:19:44;19.70;48.80
41116;DHT22;26861;51.824;4.682;2023-03-16T14:22:19;19.70;48.60
41116;DHT22;26861;51.824;4.682;2023-03-16T14:24:52;19.80;48.50
41116;DHT22;26861;51.824;4.682;2023-03-16T14:29:52;19.80;48.40
41116;DHT22;26861;51.824;4.682;2023-03-16T14:32:29;19.80;48.40
41116;DHT22;26861;51.824;4.682;2023-03-16T14:35:13;19.90;48.20
41116;DHT22;26861;51.824;4.682;2023-03-16T14:37:40;19.80;48.30
41116;DHT22;26861;51.824;4.682;2023-03-16T14:40:26;19.90;48.20
41116;DHT22;26861;51.824;4.682;2023-03-16T14:42:55;19.90;48.30
41116;DHT22;26861;51.824;4.682;2023-03-16T14:45:33;19.90;48.20
41116;DHT22;26861;51.824;4.682;2023-03-16T14:48:05;19.90;48.40
41116;DHT22;26861;51.824;4.682;2023-03-16T14:50:32;19.80;48.40
41116;DHT22;26861;51.824;4.682;2023-03-16T14:52:59;19.80;48.50
41116;DHT22;26861;51.824;4.682;2023-03-16T14:55:27;19.80;48.30
41116;DHT22;26861;51.824;4.682;2023-03-16T14:57:53;19.80;48.40
41116;DHT22;26861;51.824;4.682;2023-03-16T15:00:20;19.80;48.50
41116;DHT22;26861;51.824;4.682;2023-03-16T15:02:57;19.90;48.40
41116;DHT22;26861;51.824;4.682;2023-03-16T15:05:30;19.90;48.60
41116;DHT22;26861;51.824;4.682;2023-03-16T15:07:56;19.90;48.30
41116;DHT22;26861;51.824;4.682;2023-03-16T15:10:27;19.90;48.10
41116;DHT22;26861;51.824;4.682;2023-03-16T15:12:54;19.90;48.30
41116;DHT22;26861;51.824;4.682;2023-03-16T15:15:30;19.90;48.20
41116;DHT22;26861;51.824;4.682;2023-03-16T15:17:56;20.00;48.70
41116;DHT22;26861;51.824;4.682;2023-03-16T15:20:27;20.00;48.20
41116;DHT22;26861;51.824;4.682;2023-03-16T15:22:56;20.00;48.30
41116;DHT22;26861;51.824;4.682;2023-03-16T15:27:55;20.00;48.20
41116;DHT22;26861;51.824;4.682;2023-03-16T15:30:24;20.00;48.10
41116;DHT22;26861;51.824;4.682;2023-03-16T15:32:51;19.90;48.10
41116;DHT22;26861;51.824;4.682;2023-03-16T15:35:18;19.90;47.90
41116;DHT22;26861;51.824;4.682;2023-03-16T15:37:44;19.90;47.90
41116;DHT22;26861;51.824;4.682;2023-03-16T15:40:24;19.90;47.70
41116;DHT22;26861;51.824;4.682;2023-03-16T15:42:51;19.80;47.80
41116;DHT22;26861;51.824;4.682;2023-03-16T15:45:20;19.70;48.00
41116;DHT22;26861;51.824;4.682;2023-03-16T15:47:48;19.70;48.10
41116;DHT22;26861;51.824;4.682;2023-03-16T15:50:16;19.50;47.80
41116;DHT22;26861;51.824;4.682;2023-03-16T15:52:48;19.50;48.20
41116;DHT22;26861;51.824;4.682;2023-03-16T15:55:21;19.40;48.50
41116;DHT22;26861;51.824;4.682;2023-03-16T15:57:54;19.40;49.10
41116;DHT22;26861;51.824;4.682;2023-03-16T16:02:58;19.30;48.40
41116;DHT22;26861;51.824;4.682;2023-03-16T16:05:24;19.30;48.40
41116;DHT22;26861;51.824;4.682;2023-03-16T16:07:50;19.30;48.80
41116;DHT22;26861;51.824;4.682;2023-03-16T16:10:16;19.20;48.60
41116;DHT22;26861;51.824;4.682;2023-03-16T16:12:43;19.20;48.20
41116;DHT22;26861;51.824;4.682;2023-03-16T16:15:23;19.20;48.40
41116;DHT22;26861;51.824;4.682;2023-03-16T16:17:54;19.20;48.70
41116;DHT22;26861;51.824;4.682;2023-03-16T16:20:25;19.10;48.50
41116;DHT22;26861;51.824;4.682;2023-03-16T16:22:52;19.10;48.90
41116;DHT22;26861;51.824;4.682;2023-03-16T16:25:22;19.00;48.90
41116;DHT22;26861;51.824;4.682;2023-03-16T16:27:50;18.90;49.20
41116;DHT22;26861;51.824;4.682;2023-03-16T16:30:27;18.80;48.90
41116;DHT22;26861;51.824;4.682;2023-03-16T16:32:54;18.70;49.00
41116;DHT22;26861;51.824;4.682;2023-03-16T16:35:23;18.70;49.50
41116;DHT22;26861;51.824;4.682;2023-03-16T16:37:49;18.70;49.10
41116;DHT22;26861;51.824;4.682;2023-03-16T16:40:20;18.60;49.30
41116;DHT22;26861;51.824;4.682;2023-03-16T16:42:49;18.60;49.50
41116;DHT22;26861;51.824;4.682;2023-03-16T16:45:21;18.60;49.40
41116;DHT22;26861;51.824;4.682;2023-03-16T16:47:51;18.50;49.40
41116;DHT22;26861;51.824;4.682;2023-03-16T16:50:22;18.50;49.70
41116;DHT22;26861;51.824;4.682;2023-03-16T16:52:50;18.40;49.60
41116;DHT22;26861;51.824;4.682;2023-03-16T16:55:18;18.50;49.80